createdAt,value
2022-10-01T00:00:29.275Z,100203.88
2022-10-01T00:02:55.768Z,100196.34
2022-10-01T00:05:22.283Z,100204.28
2022-10-01T00:07:48.731Z,100207.72
2022-10-01T00:10:16.059Z,100210.16
2022-10-01T00:12:49.035Z,100206.50
2022-10-01T00:15:16.878Z,100205.28
2022-10-01T00:17:43.626Z,100208.75
2022-10-01T00:20:14.732Z,100197.16
2022-10-01T00:22:41.481Z,100194.34
2022-10-01T00:25:07.947Z,100195.97
2022-10-01T00:27:35.876Z,100196.63
2022-10-01T00:30:04.685Z,100192.56
2022-10-01T00:32:32.256Z,100191.16
2022-10-01T00:35:01.049Z,100185.03
2022-10-01T00:37:27.480Z,100177.34
2022-10-01T00:39:53.984Z,100172.06
2022-10-01T00:42:23.544Z,100162.53
2022-10-01T00:44:50.729Z,100157.03
2022-10-01T00:47:29.007Z,100151.16
2022-10-01T00:50:01.911Z,100155.84
2022-10-01T00:52:31.786Z,100138.81
2022-10-01T00:55:04.967Z,100123.38
2022-10-01T00:57:32.664Z,100118.94
2022-10-01T01:00:04.500Z,100105.75
2022-10-01T01:02:31.005Z,100106.75
2022-10-01T01:04:57.886Z,100104.13
2022-10-01T01:07:24.391Z,100097.84
2022-10-01T01:09:53.683Z,100106.75
2022-10-01T01:12:38.406Z,100095.81
2022-10-01T01:15:43.801Z,100092.97
2022-10-01T01:18:22.930Z,100104.75
2022-10-01T01:21:22.908Z,100077.97
2022-10-01T01:24:16.513Z,100077.97
2022-10-01T01:27:10.545Z,100069.88
2022-10-01T01:29:55.292Z,100057.31
2022-10-01T01:32:35.175Z,100051.84
2022-10-01T01:35:06.756Z,100037.63
2022-10-01T01:37:38.384Z,100031.75
2022-10-01T01:40:12.148Z,100013.53
2022-10-01T01:42:41.961Z,100008.69
2022-10-01T01:45:13.573Z,99988.38
2022-10-01T01:47:42.182Z,99978.47
2022-10-01T01:50:11.440Z,99975.81
2022-10-01T01:52:38.332Z,99953.75
2022-10-01T01:55:08.403Z,99957.19
2022-10-01T01:57:43.452Z,99969.34
2022-10-01T02:00:11.809Z,99976.63
2022-10-01T02:02:40.243Z,99980.69
2022-10-01T02:05:14.163Z,99983.13
2022-10-01T02:08:16.019Z,99974.00
2022-10-01T02:11:03.852Z,99974.63
2022-10-01T02:13:43.706Z,99988.22
2022-10-01T02:16:42.226Z,99986.34
2022-10-01T02:19:11.960Z,99986.97
2022-10-01T02:21:57.915Z,99989.22
2022-10-01T02:24:33.472Z,99999.97
2022-10-01T02:27:04.272Z,99993.25
2022-10-01T02:29:31.156Z,99994.88
2022-10-01T02:31:57.566Z,100002.16
2022-10-01T02:34:28.863Z,99998.94
2022-10-01T02:36:57.877Z,99998.53
2022-10-01T02:39:27.540Z,100009.47
2022-10-01T02:41:55.648Z,99998.53
2022-10-01T02:44:30.202Z,99979.50
2022-10-01T02:47:02.655Z,99985.16
2022-10-01T02:49:31.042Z,99975.03
2022-10-01T02:52:15.011Z,99945.03
2022-10-01T02:55:00.544Z,99914.22
2022-10-01T02:57:27.656Z,99942.41
2022-10-01T02:59:59.819Z,99944.22
2022-10-01T03:02:28.517Z,99950.50
2022-10-01T03:04:57.426Z,99952.13
2022-10-01T03:07:26.088Z,99955.34
2022-10-01T03:09:52.772Z,99919.13
2022-10-01T03:12:19.233Z,99903.09
2022-10-01T03:14:46.103Z,99909.97
2022-10-01T03:17:13.875Z,99905.53
2022-10-01T03:19:40.601Z,99909.78
2022-10-01T03:22:12.868Z,99907.34
2022-10-01T03:24:39.255Z,99908.78
2022-10-01T03:27:05.620Z,99902.50
2022-10-01T03:29:32.044Z,99904.72
2022-10-01T03:31:58.382Z,99901.91
2022-10-01T03:34:24.892Z,99885.28
2022-10-01T03:36:54.121Z,99869.69
2022-10-01T03:39:20.578Z,99858.72
2022-10-01T03:41:46.965Z,99848.63
2022-10-01T03:44:13.588Z,99857.13
2022-10-01T03:46:39.966Z,99849.22
2022-10-01T03:49:06.331Z,99845.38
2022-10-01T03:51:33.495Z,99841.94
2022-10-01T03:54:00.167Z,99829.38
2022-10-01T03:56:26.651Z,99846.41
2022-10-01T03:58:53.052Z,99841.53
2022-10-01T04:01:19.511Z,99842.94
2022-10-01T04:03:46.289Z,99843.75
2022-10-01T04:06:13.248Z,99838.50
2022-10-01T04:08:39.815Z,99848.63
2022-10-01T04:11:07.035Z,99837.28
2022-10-01T04:13:34.738Z,99828.34
2022-10-01T04:16:05.224Z,99830.38
2022-10-01T04:18:32.128Z,99825.09
2022-10-01T04:20:58.484Z,99843.16
2022-10-01T04:23:26.301Z,99855.31
2022-10-01T04:25:52.930Z,99840.09
2022-10-01T04:28:19.645Z,99842.31
2022-10-01T04:30:46.575Z,99826.53
2022-10-01T04:33:15.167Z,99834.00
2022-10-01T04:35:43.262Z,99839.06
2022-10-01T04:38:17.422Z,99854.88
2022-10-01T04:40:43.848Z,99848.56
2022-10-01T04:43:11.686Z,99853.03
2022-10-01T04:45:38.230Z,99839.44
2022-10-01T04:48:05.351Z,99837.63
2022-10-01T04:50:32.119Z,99834.19
2022-10-01T04:52:58.502Z,99836.41
2022-10-01T04:55:24.942Z,99834.59
2022-10-01T04:57:51.309Z,99825.28
2022-10-01T05:00:21.656Z,99823.03
2022-10-01T05:02:49.495Z,99799.94
2022-10-01T05:05:17.486Z,99807.03
2022-10-01T05:07:44.438Z,99801.56
2022-10-01T05:10:14.054Z,99803.19
2022-10-01T05:12:41.372Z,99801.56
2022-10-01T05:15:08.580Z,99810.66
2022-10-01T05:17:35.293Z,99804.38
2022-10-01T05:20:03.698Z,99813.28
2022-10-01T05:22:30.148Z,99815.31
2022-10-01T05:24:59.053Z,99803.13
2022-10-01T05:27:28.384Z,99817.72
2022-10-01T05:29:54.827Z,99830.69
2022-10-01T05:32:21.135Z,99811.44
2022-10-01T05:34:52.678Z,99821.56
2022-10-01T05:37:19.973Z,99816.47
2022-10-01T05:39:46.522Z,99813.25
2022-10-01T05:42:12.914Z,99814.06
2022-10-01T05:44:40.755Z,99818.50
2022-10-01T05:47:07.554Z,99817.88
2022-10-01T05:49:34.017Z,99823.53
2022-10-01T05:52:00.912Z,99827.16
2022-10-01T05:54:29.457Z,99824.13
2022-10-01T05:56:57.005Z,99832.22
2022-10-01T05:59:25.523Z,99832.59
2022-10-01T06:01:53.841Z,99835.41
2022-10-01T06:04:20.355Z,99840.69
2022-10-01T06:06:46.880Z,99850.81
2022-10-01T06:09:13.716Z,99842.09
2022-10-01T06:11:40.130Z,99846.56
2022-10-01T06:14:07.178Z,99844.53
2022-10-01T06:16:33.652Z,99851.84
2022-10-01T06:19:00.028Z,99865.44
2022-10-01T06:21:27.481Z,99858.53
2022-10-01T06:23:54.334Z,99865.22
2022-10-01T06:26:21.249Z,99868.25
2022-10-01T06:28:51.607Z,99869.06
2022-10-01T06:31:19.230Z,99870.88
2022-10-01T06:33:45.600Z,99871.66
2022-10-01T06:36:12.002Z,99872.47
2022-10-01T06:38:38.419Z,99879.59
2022-10-01T06:41:05.265Z,99872.88
2022-10-01T06:43:33.121Z,99870.63
2022-10-01T06:46:04.732Z,99867.78
2022-10-01T06:48:32.443Z,99863.69
2022-10-01T06:50:59.536Z,99857.81
2022-10-01T06:53:28.204Z,99876.59
2022-10-01T06:55:54.963Z,99870.31
2022-10-01T06:58:24.332Z,99866.16
2022-10-01T07:00:50.841Z,99878.13
2022-10-01T07:03:21.727Z,99862.03
2022-10-01T07:05:49.637Z,99869.13
2022-10-01T07:08:16.611Z,99867.91
2022-10-01T07:10:44.252Z,99875.19
2022-10-01T07:13:13.287Z,99876.00
2022-10-01T07:15:40.349Z,99876.59
2022-10-01T07:18:09.385Z,99875.13
2022-10-01T07:20:39.539Z,99885.66
2022-10-01T07:23:10.056Z,99890.88
2022-10-01T07:25:38.793Z,99883.19
2022-10-01T07:28:07.556Z,99891.69
2022-10-01T07:30:34.516Z,99893.69
2022-10-01T07:33:00.857Z,99898.09
2022-10-01T07:35:28.434Z,99888.38
2022-10-01T07:37:55.221Z,99902.81
2022-10-01T07:40:22.418Z,99902.81
2022-10-01T07:42:56.932Z,99911.91
2022-10-01T07:45:24.379Z,99912.72
2022-10-01T07:48:00.486Z,99916.38
2022-10-01T07:50:29.619Z,99918.59
2022-10-01T07:52:58.149Z,99927.31
2022-10-01T07:55:26.901Z,99933.03
2022-10-01T07:57:59.507Z,99927.94
2022-10-01T08:00:27.035Z,99934.97
2022-10-01T08:02:56.007Z,99932.00
2022-10-01T08:05:29.470Z,99929.84
2022-10-01T08:08:01.131Z,99932.34
2022-10-01T08:10:28.257Z,99931.28
2022-10-01T08:13:04.716Z,99934.50
2022-10-01T08:15:31.050Z,99926.34
2022-10-01T08:18:01.122Z,99932.53
2022-10-01T08:20:28.374Z,99937.16
2022-10-01T08:22:54.812Z,99943.94
2022-10-01T08:25:21.178Z,99947.75
2022-10-01T08:27:48.301Z,99948.00
2022-10-01T08:30:14.790Z,99951.66
2022-10-01T08:32:41.157Z,99952.50
2022-10-01T08:35:07.935Z,99959.63
2022-10-01T08:37:34.775Z,99959.25
2022-10-01T08:40:01.414Z,99963.31
2022-10-01T08:43:06.230Z,99975.25
2022-10-01T08:45:51.447Z,99978.47
2022-10-01T08:48:23.918Z,99974.59
2022-10-01T08:50:57.470Z,99979.50
2022-10-01T08:53:37.343Z,99982.94
2022-10-01T08:56:05.630Z,99986.13
2022-10-01T08:58:45.146Z,99990.97
2022-10-01T09:01:11.948Z,99983.25
2022-10-01T09:03:53.365Z,99991.34
2022-10-01T09:06:23.112Z,99987.44
2022-10-01T09:08:49.429Z,99983.50
2022-10-01T09:11:43.051Z,99987.72
2022-10-01T09:14:15.425Z,99978.78
2022-10-01T09:17:03.556Z,99980.84
2022-10-01T09:19:47.758Z,99998.47
2022-10-01T09:23:02.243Z,99996.72
2022-10-01T09:25:29.416Z,100006.72
2022-10-01T09:28:11.399Z,100003.47
2022-10-01T09:30:54.896Z,100007.72
2022-10-01T09:33:24.808Z,100008.31
2022-10-01T09:36:04.713Z,100005.66
2022-10-01T09:38:45.921Z,100002.78
2022-10-01T09:41:12.842Z,100010.88
2022-10-01T09:43:42.240Z,100015.16
2022-10-01T09:46:17.087Z,100018.09
2022-10-01T09:49:02.294Z,100024.78
2022-10-01T09:51:41.391Z,100027.56
2022-10-01T09:54:45.716Z,100020.09
2022-10-01T09:57:20.732Z,100018.31
2022-10-01T10:00:10.490Z,100020.59
2022-10-01T10:02:49.673Z,100019.09
2022-10-01T10:05:19.247Z,100011.28
2022-10-01T10:08:10.418Z,100026.66
2022-10-01T10:10:39.578Z,100024.66
2022-10-01T10:13:24.374Z,100028.88
2022-10-01T10:15:57.453Z,100037.66
2022-10-01T10:18:38.376Z,100037.31
2022-10-01T10:21:11.559Z,100040.59
2022-10-01T10:23:51.011Z,100051.47
2022-10-01T10:26:21.310Z,100048.63
2022-10-01T10:28:48.090Z,100051.91
2022-10-01T10:31:17.774Z,100047.53
2022-10-01T10:33:51.198Z,100057.13
2022-10-01T10:36:19.635Z,100044.03
2022-10-01T10:38:53.692Z,100051.19
2022-10-01T10:41:26.197Z,100051.41
2022-10-01T10:43:57.676Z,100061.94
2022-10-01T10:46:32.231Z,100067.88
2022-10-01T10:49:05.737Z,100067.81
2022-10-01T10:51:51.252Z,100079.09
2022-10-01T10:54:19.622Z,100075.38
2022-10-01T10:57:02.500Z,100080.78
2022-10-01T10:59:31.884Z,100087.00
2022-10-01T11:02:04.657Z,100087.72
2022-10-01T11:04:42.996Z,100093.94
2022-10-01T11:07:11.052Z,100081.13
2022-10-01T11:10:02.537Z,100089.97
2022-10-01T11:12:56.600Z,100081.28
2022-10-01T11:15:41.916Z,100091.34
2022-10-01T11:18:17.636Z,100084.94
2022-10-01T11:21:03.796Z,100086.06
2022-10-01T11:23:50.694Z,100085.69
2022-10-01T11:26:46.120Z,100092.16
2022-10-01T11:29:47.230Z,100100.97
2022-10-01T11:32:34.020Z,100092.66
2022-10-01T11:35:19.498Z,100095.31
2022-10-01T11:38:11.684Z,100095.38
2022-10-01T11:40:40.876Z,100097.31
2022-10-01T11:43:21.206Z,100090.16
2022-10-01T11:45:55.706Z,100096.06
2022-10-01T11:48:29.752Z,100106.72
2022-10-01T11:51:05.435Z,100101.63
2022-10-01T11:53:40.759Z,100109.41
2022-10-01T11:56:40.232Z,100108.81
2022-10-01T11:59:16.776Z,100104.81
2022-10-01T12:01:52.197Z,100105.69
2022-10-01T12:04:31.580Z,100125.78
2022-10-01T12:07:01.811Z,100110.00
2022-10-01T12:10:02.500Z,100117.38
2022-10-01T12:12:35.830Z,100131.69
2022-10-01T12:15:11.175Z,100112.66
2022-10-01T12:17:51.430Z,100121.50
2022-10-01T12:20:29.913Z,100133.59
2022-10-01T12:22:59.768Z,100125.19
2022-10-01T12:25:46.744Z,100148.28
2022-10-01T12:28:19.529Z,100132.09
2022-10-01T12:30:54.711Z,100157.66
2022-10-01T12:33:32.364Z,100162.13
2022-10-01T12:36:13.078Z,100163.53
2022-10-01T12:39:14.904Z,100156.97
2022-10-01T12:41:52.846Z,100174.97
2022-10-01T12:44:57.169Z,100169.75
2022-10-01T12:47:42.938Z,100174.56
2022-10-01T12:50:21.784Z,100172.38
2022-10-01T12:53:17.746Z,100192.72
2022-10-01T12:55:55.525Z,100195.28
2022-10-01T12:58:52.980Z,100195.53
2022-10-01T13:01:38.716Z,100199.34
2022-10-01T13:04:27.740Z,100198.22
2022-10-01T13:07:07.930Z,100204.13
2022-10-01T13:09:57.790Z,100211.94
2022-10-01T13:12:36.833Z,100209.06
2022-10-01T13:15:05.527Z,100210.44
2022-10-01T13:17:46.153Z,100216.28
2022-10-01T13:20:32.422Z,100225.63
2022-10-01T13:23:18.585Z,100221.38
2022-10-01T13:25:58.878Z,100223.03
2022-10-01T13:28:54.334Z,100227.84
2022-10-01T13:31:34.994Z,100224.28
2022-10-01T13:34:02.671Z,100227.84
2022-10-01T13:36:35.571Z,100221.00
2022-10-01T13:39:02.203Z,100229.06
2022-10-01T13:41:31.677Z,100239.44
2022-10-01T13:44:18.411Z,100226.22
2022-10-01T13:47:00.290Z,100236.88
2022-10-01T13:49:32.279Z,100242.59
2022-10-01T13:51:59.078Z,100253.94
2022-10-01T13:54:47.380Z,100275.84
2022-10-01T13:57:29.059Z,100276.53
2022-10-01T14:00:11.599Z,100287.03
2022-10-01T14:02:41.203Z,100293.56
2022-10-01T14:05:30.870Z,100290.13
2022-10-01T14:08:12.274Z,100287.69
2022-10-01T14:11:16.676Z,100290.91
2022-10-01T14:14:05.835Z,100296.00
2022-10-01T14:16:42.746Z,100291.38
2022-10-01T14:19:17.039Z,100291.06
2022-10-01T14:21:58.922Z,100295.03
2022-10-01T14:24:43.374Z,100287.03
2022-10-01T14:27:09.780Z,100295.34
2022-10-01T14:30:05.376Z,100294.41
2022-10-01T14:32:51.013Z,100308.91
2022-10-01T14:35:38.797Z,100332.72
2022-10-01T14:38:13.154Z,100332.72
2022-10-01T14:40:42.275Z,100331.13
2022-10-01T14:43:19.277Z,100319.97
2022-10-01T14:45:54.017Z,100325.53
2022-10-01T14:48:20.780Z,100328.00
2022-10-01T14:50:50.922Z,100336.63
2022-10-01T14:53:19.622Z,100335.56
2022-10-01T14:55:50.898Z,100335.72
2022-10-01T14:58:27.097Z,100340.84
2022-10-01T15:00:56.045Z,100345.19
2022-10-01T15:03:22.533Z,100354.03
2022-10-01T15:05:50.057Z,100363.25
2022-10-01T15:08:19.562Z,100354.31
2022-10-01T15:11:03.812Z,100361.09
2022-10-01T15:13:35.371Z,100358.72
2022-10-01T15:16:02.727Z,100369.13
2022-10-01T15:18:30.483Z,100371.66
2022-10-01T15:21:02.079Z,100381.38
2022-10-01T15:23:30.719Z,100382.97
2022-10-01T15:26:00.123Z,100389.41
2022-10-01T15:28:31.783Z,100393.31
2022-10-01T15:31:00.888Z,100388.22
2022-10-01T15:33:29.729Z,100400.09
2022-10-01T15:36:01.962Z,100384.81
2022-10-01T15:38:33.730Z,100395.94
2022-10-01T15:41:26.726Z,100402.78
2022-10-01T15:43:49.776Z,100406.28
2022-10-01T15:46:16.183Z,100415.53
2022-10-01T15:48:42.726Z,100415.97
2022-10-01T15:51:25.386Z,100419.31
2022-10-01T15:53:53.097Z,100416.75
2022-10-01T15:56:24.043Z,100418.84
2022-10-01T15:58:54.531Z,100429.78
2022-10-01T16:01:25.220Z,100428.91
2022-10-01T16:04:20.778Z,100439.13
2022-10-01T16:06:50.151Z,100436.47
2022-10-01T16:09:21.939Z,100445.03
2022-10-01T16:12:03.545Z,100448.66
2022-10-01T16:14:43.660Z,100458.94
2022-10-01T16:17:19.594Z,100456.69
2022-10-01T16:19:47.136Z,100468.78
2022-10-01T16:22:23.363Z,100467.22
2022-10-01T16:24:54.589Z,100465.00
2022-10-01T16:27:35.122Z,100472.47
2022-10-01T16:30:11.858Z,100479.03
2022-10-01T16:32:38.217Z,100483.75
2022-10-01T16:35:15.286Z,100486.03
2022-10-01T16:37:41.804Z,100487.78
2022-10-01T16:40:11.713Z,100486.88
2022-10-01T16:42:42.662Z,100494.44
2022-10-01T16:45:18.039Z,100503.78
2022-10-01T16:47:45.468Z,100499.28
2022-10-01T16:50:16.224Z,100513.41
2022-10-01T16:52:43.079Z,100512.59
2022-10-01T16:55:25.312Z,100516.69
2022-10-01T16:57:54.474Z,100519.50
2022-10-01T17:00:22.630Z,100521.53
2022-10-01T17:02:49.161Z,100537.25
2022-10-01T17:05:15.525Z,100540.13
2022-10-01T17:07:41.876Z,100542.78
2022-10-01T17:10:08.291Z,100547.28
2022-10-01T17:12:34.687Z,100545.72
2022-10-01T17:15:01.023Z,100550.69
2022-10-01T17:17:27.477Z,100561.09
2022-10-01T17:19:53.922Z,100563.81
2022-10-01T17:22:20.443Z,100563.81
2022-10-01T17:24:46.761Z,100571.53
2022-10-01T17:27:13.219Z,100573.38
2022-10-01T17:29:39.718Z,100583.34
2022-10-01T17:32:06.204Z,100590.28
2022-10-01T17:34:35.631Z,100593.78
2022-10-01T17:37:02.054Z,100591.31
2022-10-01T17:39:28.589Z,100599.50
2022-10-01T17:41:55.044Z,100608.06
2022-10-01T17:44:21.925Z,100607.28
2022-10-01T17:46:48.261Z,100620.28
2022-10-01T17:49:15.279Z,100627.19
2022-10-01T17:51:41.643Z,100633.44
2022-10-01T17:54:08.049Z,100641.13
2022-10-01T17:56:34.789Z,100638.72
2022-10-01T17:59:01.431Z,100651.06
2022-10-01T18:01:28.154Z,100664.34
2022-10-01T18:04:00.444Z,100664.56
2022-10-01T18:06:27.250Z,100673.75
2022-10-01T18:08:56.316Z,100677.63
2022-10-01T18:11:26.501Z,100686.44
2022-10-01T18:13:53.154Z,100694.16
2022-10-01T18:16:20.001Z,100686.84
2022-10-01T18:21:33.053Z,100695.59
2022-10-01T18:24:04.223Z,100694.59
2022-10-01T18:26:31.229Z,100701.94
2022-10-01T18:28:57.577Z,100708.81
2022-10-01T18:31:27.070Z,100710.84
2022-10-01T18:33:59.093Z,100716.47
2022-10-01T18:37:00.881Z,100722.16
2022-10-01T18:39:53.142Z,100729.19
2022-10-01T18:42:27.210Z,100730.16
2022-10-01T18:44:59.628Z,100726.63
2022-10-01T18:47:32.065Z,100734.59
2022-10-01T18:50:17.232Z,100744.72
2022-10-01T18:53:21.246Z,100756.44
2022-10-01T18:55:59.576Z,100757.81
2022-10-01T18:58:41.209Z,100764.31
2022-10-01T19:01:35.659Z,100767.72
2022-10-01T19:04:32.553Z,100776.88
2022-10-01T19:07:37.075Z,100779.97
2022-10-01T19:10:15.411Z,100779.66
2022-10-01T19:13:24.161Z,100782.88
2022-10-01T19:16:15.471Z,100784.75
2022-10-01T19:19:07.394Z,100788.91
2022-10-01T19:21:45.184Z,100791.63
2022-10-01T19:24:15.201Z,100801.19
2022-10-01T19:26:47.078Z,100805.06
2022-10-01T19:29:30.793Z,100808.91
2022-10-01T19:32:02.230Z,100817.16
2022-10-01T19:34:39.040Z,100818.88
2022-10-01T19:37:12.809Z,100827.81
2022-10-01T19:39:41.682Z,100823.47
2022-10-01T19:42:15.112Z,100822.84
2022-10-01T19:44:55.444Z,100826.09
2022-10-01T19:47:27.528Z,100829.41
2022-10-01T19:50:00.534Z,100822.53
2022-10-01T19:52:30.484Z,100828.06
2022-10-01T19:55:00.660Z,100830.44
2022-10-01T19:57:34.737Z,100825.25
2022-10-01T20:00:11.834Z,100837.81
2022-10-01T20:02:49.151Z,100840.34
2022-10-01T20:05:29.267Z,100832.25
2022-10-01T20:08:05.802Z,100840.16
2022-10-01T20:10:45.984Z,100848.25
2022-10-01T20:13:28.162Z,100851.06
2022-10-01T20:16:16.274Z,100855.97
2022-10-01T20:18:59.918Z,100858.50
2022-10-01T20:21:37.443Z,100861.78
2022-10-01T20:24:18.944Z,100868.31
2022-10-01T20:27:03.565Z,100872.13
2022-10-01T20:29:58.222Z,100874.97
2022-10-01T20:32:33.534Z,100878.22
2022-10-01T20:35:24.744Z,100879.19
2022-10-01T20:37:59.221Z,100881.00
2022-10-01T20:40:40.537Z,100877.00
2022-10-01T20:43:17.934Z,100884.84
2022-10-01T20:45:48.357Z,100885.72
2022-10-01T20:48:22.364Z,100892.00
2022-10-01T20:50:54.026Z,100891.81
2022-10-01T20:53:21.815Z,100893.81
2022-10-01T20:56:01.923Z,100893.69
2022-10-01T20:58:44.348Z,100907.31
2022-10-01T21:01:23.804Z,100896.72
2022-10-01T21:04:03.600Z,100902.16
2022-10-01T21:06:37.286Z,100912.69
2022-10-01T21:09:15.949Z,100913.22
2022-10-01T21:11:53.682Z,100920.41
2022-10-01T21:14:33.331Z,100924.31
2022-10-01T21:17:23.487Z,100931.78
2022-10-01T21:19:59.698Z,100923.56
2022-10-01T21:22:36.123Z,100931.00
2022-10-01T21:25:25.744Z,100928.38
2022-10-01T21:28:23.206Z,100927.19
2022-10-01T21:31:12.321Z,100932.94
2022-10-01T21:33:52.168Z,100935.63
2022-10-01T21:36:30.681Z,100943.69
2022-10-01T21:39:09.563Z,100943.34
2022-10-01T21:41:38.836Z,100950.13
2022-10-01T21:44:30.102Z,100945.84
2022-10-01T21:47:08.882Z,100951.94
2022-10-01T21:49:57.425Z,100957.25
2022-10-01T21:52:34.185Z,100960.75
2022-10-01T21:55:22.015Z,100965.09
2022-10-01T21:58:01.949Z,100966.16
2022-10-01T22:00:29.582Z,100958.94
2022-10-01T22:03:02.174Z,100963.56
2022-10-01T22:05:34.013Z,100960.13
2022-10-01T22:08:37.886Z,100967.81
2022-10-01T22:11:12.044Z,100976.22
2022-10-01T22:14:01.403Z,100976.41
2022-10-01T22:16:38.497Z,100976.28
2022-10-01T22:19:16.417Z,100984.34
2022-10-01T22:21:46.055Z,100981.09
2022-10-01T22:24:23.137Z,100990.91
2022-10-01T22:26:54.478Z,100995.47
2022-10-01T22:29:29.600Z,101005.00
2022-10-01T22:31:58.845Z,101009.59
2022-10-01T22:34:34.156Z,101007.97
2022-10-01T22:37:06.175Z,101014.91
2022-10-01T22:39:37.451Z,101016.84
2022-10-01T22:42:12.137Z,101021.81
2022-10-01T22:44:38.762Z,101015.50
2022-10-01T22:47:44.104Z,101015.00
2022-10-01T22:50:42.850Z,101014.78
2022-10-01T22:53:37.586Z,101013.50
2022-10-01T22:56:04.025Z,101023.66
2022-10-01T22:58:57.033Z,101012.47
2022-10-01T23:01:45.059Z,101019.22
2022-10-01T23:04:28.717Z,101022.44
2022-10-01T23:06:59.246Z,101017.63
2022-10-01T23:09:35.309Z,101021.28
2022-10-01T23:12:13.695Z,101018.28
2022-10-01T23:15:13.578Z,101019.75
2022-10-01T23:18:07.001Z,101015.69
2022-10-01T23:20:42.397Z,101016.84
2022-10-01T23:23:33.953Z,101020.00
2022-10-01T23:26:12.379Z,101022.28
2022-10-01T23:28:49.128Z,101020.00
2022-10-01T23:31:31.329Z,101021.34
2022-10-01T23:34:25.464Z,101014.09
2022-10-01T23:37:36.242Z,101013.81
2022-10-01T23:40:09.726Z,101023.34
2022-10-01T23:42:38.935Z,101023.81
2022-10-01T23:45:17.398Z,101026.13
2022-10-01T23:47:55.026Z,101025.66
2022-10-01T23:50:44.907Z,101030.09
2022-10-01T23:53:17.755Z,101032.41
2022-10-01T23:56:17.874Z,101030.94
2022-10-01T23:59:00.300Z,101032.72
